Huvudsida
METAR-TAF:

METAR-TAF

Flygplatser :

Georgetown, Ascension

latitud: 07-58S, longitud: 014-24W, höjd: 86 m

Aktuellt väderrapport

Denna rapport gjordes för 25 timmar och 11 minuter sedan, klockan 05:50 UTC
Vind 8 kt från syd/sydost
Temperatur 25°C
Fuktighet 69%
Tryck 1012 hPa
Sikt 10 km eller mer
Få moln på en höjd av 1800 ft
Spridda moln på en höjd av 4200 ft

METAR: FHAW 200550Z 15008KT 9999 FEW018 SCT042 25/19 Q1012 BLU NOSIG

Tid: 07:01 (07:01 UTC)

Väderprognos

Denna rapport gjordes för 26 timmar och 31 minuter sedan, klockan 04:30 UTC
Prognos gäller från 20 kl. 06 UTC till 20 kl. 24 UTC
Vind 13 kt från sydost
Sikt 10 km eller mer
Få moln på en höjd av 1700 ft
Spridda moln på en höjd av 3000 ft
Sannolikhet 30% :
Temporärt
från 20 kl. 06 UTC till 20 kl. 12 UTC
Sikt: 6000 m
Brutna moln på en höjd av 1200 ft
lätta regnskurar

TAF: FHAW 200430Z 2006/2024 13013KT 9999 FEW017 SCT030 PROB30 TEMPO 2006/2012 6000 -SHRA BKN012

Aktuella väderrapporter och prognoser från 4000 flygplatser (METAR- och TAF-rapporter).

De tillgängliga stationerna syns som gula och röda prickar på kartan.

För musen över prickarna för att se namnen på stationerna.

Klicka sedan för att få väderrapporter och prognoser.

För att ändra kartan: Klicka på de gröna knapparna med ett svart kors på för att zooma in; den gröna knappen med ett streck på för att zooma ut; eller på de gröna pilarna för angränsande kartor.


METAR-TAF: